Terminal Aerodrome Forecast
Issued by NWS

Home | Current Version | Previous Version | Text Only | Print | Product List | Glossary On
Versions: 1 2 3 4 5 6 7 8 9 10 11 12 13 14 15 16 17 18 19 20 21 22 23
000
FTUS46 KMTR 160500
TAFMRY
TAF
KMRY 160533Z 1606/1706 20006KT P6SM OVC015
     FM161700 27005KT P6SM BKN015
     FM161800 29010KT P6SM FEW015
     FM170300 24004KT P6SM BKN015=

USA.gov is the U.S. government's official web portal to all federal, state and local government web resources and services.